ENBO

Bodø Airport

Bodø, Norway
TAF AMD ENBO 251551Z 2515/2612 24025KT 9999 -SHRA FEW012TCU BKN030 TEMPO 2515/2519 26030G40KT TSRAGS BKN015CB TEMPO 2519/2612 24025G35KT PROB40 TEMPO 2518/2612 18015KT PROB30 TEMPO 2609/2612 TS
Issued Valid From Valid To
Sep-25 @ 15:51 UTC
(an hour ago)
Sep-25 @ 15:00 UTC
(2 hours ago)
Sep-26 @ 12:00 UTC
(in 19 hours)
Sep-25 @ 15:00 to Sep-26 @ 12:00
TAF AMD ENBO 251551Z 2515/2612 24025KT 9999 -SHRA FEW012TCU BKN030
Wind Visibility Clouds Conditions
240° at 25 knots 10,000+ meters
  • Few at 1,200' AGL
  • Broken at 3,000' AGL
  • Light Rain
Temporary Sep-25 @ 15:00 to Sep-25 @ 19:00
TEMPO 2515/2519 26030G40KT TSRAGS BKN015CB
Wind Clouds Conditions
260° at 30 knots
 Gusting to 40 knots
  • Broken at 1,500' AGL
  • Thunderstorm
  • Rain
  • Thunderstorm
  • Small hail
Temporary  (Probability 40%) Sep-25 @ 18:00 to Sep-26 @ 12:00
PROB40 TEMPO 2518/2612 18015KT
Wind
180° at 15 knots
Temporary Sep-25 @ 19:00 to Sep-26 @ 12:00
TEMPO 2519/2612 24025G35KT
Wind
240° at 25 knots
 Gusting to 35 knots
Temporary  (Probability 30%) Sep-26 @ 09:00 to Sep-26 @ 12:00
PROB30 TEMPO 2609/2612 TS
Conditions
  • Thunderstorm
TAF AMD ENBO 251551Z 2515/2612 24025KT 9999 -SHRA FEW012TCU BKN030 TEMPO 2515/2519 26030G40KT TSRAGS BKN015CB TEMPO 2519/2612 24025G35KT PROB40 TEMPO 2518/2612 18015KT PROB30 TEMPO 2609/2612 TS
Issued Sep-25 @ 15:51 UTC
(an hour ago)
Valid From Sep-25 @ 15:00 UTC
(2 hours ago)
Valid To Sep-26 @ 12:00 UTC
(in 19 hours)
Sep-25 @ 15:00 - Sep-26 @ 12:00
Wind Visibility
240° at 25 knots 10,000+ meters
Clouds
  • Few at 1,200' AGL
  • Broken at 3,000' AGL
Conditions
  • Light Rain
Temporary Sep-25 @ 15:00 - Sep-25 @ 19:00
Wind
260° at 30 knots
 Gusting to 40 knots
Clouds
  • Broken at 1,500' AGL
Conditions
  • Thunderstorm
  • Rain
  • Thunderstorm
  • Small hail
Probability 40% Temporary Sep-25 @ 18:00 - Sep-26 @ 12:00
Wind
180° at 15 knots
Temporary Sep-25 @ 19:00 - Sep-26 @ 12:00
Wind
240° at 25 knots
 Gusting to 35 knots
Probability 30% Temporary Sep-26 @ 09:00 - Sep-26 @ 12:00
Conditions
  • Thunderstorm